sensor_id;sensor_type;location;lat;lon;timestamp;P1;durP1;ratioP1;P2;durP2;ratioP2
63693;SDS011;49839;51.798;10.954;2024-03-17T00:00:41;7.80;;;2.00;;
63693;SDS011;49839;51.798;10.954;2024-03-17T00:03:07;7.95;;;2.13;;
63693;SDS011;49839;51.798;10.954;2024-03-17T00:05:35;10.52;;;3.50;;
63693;SDS011;49839;51.798;10.954;2024-03-17T00:08:03;23.73;;;11.73;;
63693;SDS011;49839;51.798;10.954;2024-03-17T00:10:30;18.08;;;7.78;;
63693;SDS011;49839;51.798;10.954;2024-03-17T00:12:56;20.25;;;8.63;;
63693;SDS011;49839;51.798;10.954;2024-03-17T00:15:22;17.83;;;8.02;;
63693;SDS011;49839;51.798;10.954;2024-03-17T00:17:49;15.35;;;6.85;;
63693;SDS011;49839;51.798;10.954;2024-03-17T00:20:14;15.73;;;6.28;;
63693;SDS011;49839;51.798;10.954;2024-03-17T00:22:48;18.77;;;6.15;;
63693;SDS011;49839;51.798;10.954;2024-03-17T00:25:13;15.80;;;6.28;;
63693;SDS011;49839;51.798;10.954;2024-03-17T00:27:40;17.48;;;5.72;;
63693;SDS011;49839;51.798;10.954;2024-03-17T00:30:09;13.25;;;4.65;;
63693;SDS011;49839;51.798;10.954;2024-03-17T00:32:38;13.20;;;4.20;;
63693;SDS011;49839;51.798;10.954;2024-03-17T00:35:03;14.63;;;4.95;;
63693;SDS011;49839;51.798;10.954;2024-03-17T00:37:30;15.73;;;5.20;;
63693;SDS011;49839;51.798;10.954;2024-03-17T00:39:57;9.73;;;4.63;;
63693;SDS011;49839;51.798;10.954;2024-03-17T00:42:24;13.88;;;5.13;;
63693;SDS011;49839;51.798;10.954;2024-03-17T00:44:49;12.13;;;4.20;;
63693;SDS011;49839;51.798;10.954;2024-03-17T00:47:16;11.93;;;4.63;;
63693;SDS011;49839;51.798;10.954;2024-03-17T00:49:41;17.10;;;6.90;;
63693;SDS011;49839;51.798;10.954;2024-03-17T00:52:08;20.50;;;8.18;;
63693;SDS011;49839;51.798;10.954;2024-03-17T00:54:33;20.40;;;8.57;;
63693;SDS011;49839;51.798;10.954;2024-03-17T00:57:01;19.15;;;7.60;;
63693;SDS011;49839;51.798;10.954;2024-03-17T00:59:27;12.82;;;5.47;;
63693;SDS011;49839;51.798;10.954;2024-03-17T01:01:53;8.77;;;2.63;;
63693;SDS011;49839;51.798;10.954;2024-03-17T01:04:19;7.43;;;2.50;;
63693;SDS011;49839;51.798;10.954;2024-03-17T01:06:45;7.57;;;2.03;;
63693;SDS011;49839;51.798;10.954;2024-03-17T01:09:11;5.07;;;2.10;;
63693;SDS011;49839;51.798;10.954;2024-03-17T01:11:37;12.82;;;3.80;;
63693;SDS011;49839;51.798;10.954;2024-03-17T01:14:05;12.35;;;3.70;;
63693;SDS011;49839;51.798;10.954;2024-03-17T01:16:32;29.70;;;9.95;;
63693;SDS011;49839;51.798;10.954;2024-03-17T01:18:58;25.80;;;8.20;;
63693;SDS011;49839;51.798;10.954;2024-03-17T01:21:24;26.20;;;8.32;;
63693;SDS011;49839;51.798;10.954;2024-03-17T01:23:50;19.23;;;6.28;;
63693;SDS011;49839;51.798;10.954;2024-03-17T01:26:16;21.38;;;6.68;;
63693;SDS011;49839;51.798;10.954;2024-03-17T01:28:42;26.00;;;8.23;;
63693;SDS011;49839;51.798;10.954;2024-03-17T01:31:10;21.30;;;6.72;;
63693;SDS011;49839;51.798;10.954;2024-03-17T01:33:35;27.65;;;7.28;;
63693;SDS011;49839;51.798;10.954;2024-03-17T01:36:02;20.85;;;6.10;;
63693;SDS011;49839;51.798;10.954;2024-03-17T01:38:27;13.50;;;4.07;;
63693;SDS011;49839;51.798;10.954;2024-03-17T01:40:54;21.25;;;6.13;;
63693;SDS011;49839;51.798;10.954;2024-03-17T01:43:19;14.15;;;3.67;;
63693;SDS011;49839;51.798;10.954;2024-03-17T01:45:46;8.20;;;2.63;;
63693;SDS011;49839;51.798;10.954;2024-03-17T01:48:14;9.55;;;3.15;;
63693;SDS011;49839;51.798;10.954;2024-03-17T01:50:41;14.85;;;4.22;;
63693;SDS011;49839;51.798;10.954;2024-03-17T01:53:08;14.43;;;4.38;;
63693;SDS011;49839;51.798;10.954;2024-03-17T01:55:36;11.27;;;4.35;;
63693;SDS011;49839;51.798;10.954;2024-03-17T01:58:02;11.10;;;3.40;;
63693;SDS011;49839;51.798;10.954;2024-03-17T02:00:29;15.10;;;4.28;;
63693;SDS011;49839;51.798;10.954;2024-03-17T02:02:56;14.07;;;4.25;;
63693;SDS011;49839;51.798;10.954;2024-03-17T02:05:24;19.63;;;6.03;;
63693;SDS011;49839;51.798;10.954;2024-03-17T02:07:49;18.42;;;5.47;;
63693;SDS011;49839;51.798;10.954;2024-03-17T02:10:16;15.93;;;4.95;;
63693;SDS011;49839;51.798;10.954;2024-03-17T02:12:41;15.00;;;4.53;;
63693;SDS011;49839;51.798;10.954;2024-03-17T02:15:08;12.40;;;3.70;;
63693;SDS011;49839;51.798;10.954;2024-03-17T02:17:34;10.93;;;3.63;;
63693;SDS011;49839;51.798;10.954;2024-03-17T02:20:00;13.38;;;4.13;;
63693;SDS011;49839;51.798;10.954;2024-03-17T02:22:27;15.27;;;3.80;;
63693;SDS011;49839;51.798;10.954;2024-03-17T02:24:54;6.97;;;2.67;;
63693;SDS011;49839;51.798;10.954;2024-03-17T02:27:19;6.70;;;2.70;;
63693;SDS011;49839;51.798;10.954;2024-03-17T02:29:46;11.13;;;2.85;;
63693;SDS011;49839;51.798;10.954;2024-03-17T02:32:11;6.57;;;2.55;;
63693;SDS011;49839;51.798;10.954;2024-03-17T02:34:38;9.48;;;2.75;;
63693;SDS011;49839;51.798;10.954;2024-03-17T02:37:04;7.10;;;2.60;;
63693;SDS011;49839;51.798;10.954;2024-03-17T02:39:34;6.28;;;2.47;;
63693;SDS011;49839;51.798;10.954;2024-03-17T02:42:00;7.88;;;2.50;;
63693;SDS011;49839;51.798;10.954;2024-03-17T02:44:26;9.20;;;3.35;;
63693;SDS011;49839;51.798;10.954;2024-03-17T02:46:53;9.77;;;3.38;;
63693;SDS011;49839;51.798;10.954;2024-03-17T02:49:19;8.43;;;3.03;;
63693;SDS011;49839;51.798;10.954;2024-03-17T02:51:46;7.82;;;2.90;;
63693;SDS011;49839;51.798;10.954;2024-03-17T02:54:12;6.88;;;2.60;;
63693;SDS011;49839;51.798;10.954;2024-03-17T02:56:40;7.82;;;2.40;;
63693;SDS011;49839;51.798;10.954;2024-03-17T02:59:07;6.88;;;2.47;;
63693;SDS011;49839;51.798;10.954;2024-03-17T03:01:33;5.72;;;2.60;;
63693;SDS011;49839;51.798;10.954;2024-03-17T03:04:00;6.95;;;2.60;;
63693;SDS011;49839;51.798;10.954;2024-03-17T03:06:26;7.18;;;2.55;;
63693;SDS011;49839;51.798;10.954;2024-03-17T03:08:52;6.57;;;2.30;;
63693;SDS011;49839;51.798;10.954;2024-03-17T03:11:19;5.40;;;2.10;;
63693;SDS011;49839;51.798;10.954;2024-03-17T03:13:47;6.00;;;2.33;;
63693;SDS011;49839;51.798;10.954;2024-03-17T03:16:14;7.25;;;2.17;;
63693;SDS011;49839;51.798;10.954;2024-03-17T03:18:41;7.45;;;2.20;;
63693;SDS011;49839;51.798;10.954;2024-03-17T03:21:08;4.85;;;2.33;;
63693;SDS011;49839;51.798;10.954;2024-03-17T03:23:35;6.40;;;2.10;;
63693;SDS011;49839;51.798;10.954;2024-03-17T03:26:02;7.18;;;2.25;;
63693;SDS011;49839;51.798;10.954;2024-03-17T03:28:29;14.82;;;4.00;;
63693;SDS011;49839;51.798;10.954;2024-03-17T03:30:57;9.80;;;2.65;;
63693;SDS011;49839;51.798;10.954;2024-03-17T03:33:24;8.63;;;3.00;;
63693;SDS011;49839;51.798;10.954;2024-03-17T03:35:50;7.30;;;2.50;;
63693;SDS011;49839;51.798;10.954;2024-03-17T03:38:17;6.03;;;2.45;;
63693;SDS011;49839;51.798;10.954;2024-03-17T03:40:44;12.13;;;3.40;;
63693;SDS011;49839;51.798;10.954;2024-03-17T03:43:10;8.25;;;3.20;;
63693;SDS011;49839;51.798;10.954;2024-03-17T03:45:38;8.82;;;2.72;;
63693;SDS011;49839;51.798;10.954;2024-03-17T03:48:06;13.07;;;3.42;;
63693;SDS011;49839;51.798;10.954;2024-03-17T03:50:34;14.73;;;4.18;;
63693;SDS011;49839;51.798;10.954;2024-03-17T03:53:00;12.18;;;2.78;;
63693;SDS011;49839;51.798;10.954;2024-03-17T03:55:27;8.77;;;2.53;;
63693;SDS011;49839;51.798;10.954;2024-03-17T03:57:54;8.77;;;2.72;;
63693;SDS011;49839;51.798;10.954;2024-03-17T04:00:21;8.35;;;2.33;;
63693;SDS011;49839;51.798;10.954;2024-03-17T04:02:50;8.80;;;2.40;;
63693;SDS011;49839;51.798;10.954;2024-03-17T04:05:19;8.57;;;2.50;;
63693;SDS011;49839;51.798;10.954;2024-03-17T04:07:46;7.05;;;2.40;;
63693;SDS011;49839;51.798;10.954;2024-03-17T04:10:12;6.45;;;2.30;;
63693;SDS011;49839;51.798;10.954;2024-03-17T04:12:39;10.48;;;3.03;;
63693;SDS011;49839;51.798;10.954;2024-03-17T04:15:06;7.25;;;2.60;;
63693;SDS011;49839;51.798;10.954;2024-03-17T04:17:35;6.35;;;2.42;;
63693;SDS011;49839;51.798;10.954;2024-03-17T04:20:02;7.90;;;2.03;;
63693;SDS011;49839;51.798;10.954;2024-03-17T04:22:31;8.15;;;2.35;;
63693;SDS011;49839;51.798;10.954;2024-03-17T04:24:57;7.75;;;2.88;;
63693;SDS011;49839;51.798;10.954;2024-03-17T04:27:24;6.32;;;2.15;;
63693;SDS011;49839;51.798;10.954;2024-03-17T04:29:51;7.97;;;2.30;;
63693;SDS011;49839;51.798;10.954;2024-03-17T04:32:17;11.32;;;2.70;;
63693;SDS011;49839;51.798;10.954;2024-03-17T04:34:43;8.55;;;2.72;;
63693;SDS011;49839;51.798;10.954;2024-03-17T04:37:10;9.95;;;2.80;;
63693;SDS011;49839;51.798;10.954;2024-03-17T04:39:38;8.35;;;2.58;;
63693;SDS011;49839;51.798;10.954;2024-03-17T04:42:05;7.13;;;2.70;;
63693;SDS011;49839;51.798;10.954;2024-03-17T04:44:32;9.52;;;2.72;;
63693;SDS011;49839;51.798;10.954;2024-03-17T04:46:58;7.15;;;2.25;;
63693;SDS011;49839;51.798;10.954;2024-03-17T04:49:25;8.13;;;2.47;;
63693;SDS011;49839;51.798;10.954;2024-03-17T04:51:51;10.15;;;2.53;;
63693;SDS011;49839;51.798;10.954;2024-03-17T04:54:17;10.05;;;2.72;;
63693;SDS011;49839;51.798;10.954;2024-03-17T04:56:45;11.40;;;3.45;;
63693;SDS011;49839;51.798;10.954;2024-03-17T04:59:12;15.27;;;3.08;;
63693;SDS011;49839;51.798;10.954;2024-03-17T05:01:39;19.40;;;5.07;;
63693;SDS011;49839;51.798;10.954;2024-03-17T05:04:05;29.05;;;6.68;;
63693;SDS011;49839;51.798;10.954;2024-03-17T05:06:32;18.85;;;5.43;;
63693;SDS011;49839;51.798;10.954;2024-03-17T05:08:58;19.38;;;4.47;;
63693;SDS011;49839;51.798;10.954;2024-03-17T05:11:25;21.55;;;6.35;;
63693;SDS011;49839;51.798;10.954;2024-03-17T05:13:53;11.13;;;3.72;;
63693;SDS011;49839;51.798;10.954;2024-03-17T05:16:19;15.18;;;3.85;;
63693;SDS011;49839;51.798;10.954;2024-03-17T05:18:48;12.68;;;4.38;;
63693;SDS011;49839;51.798;10.954;2024-03-17T05:21:14;11.88;;;3.97;;
63693;SDS011;49839;51.798;10.954;2024-03-17T05:23:41;13.38;;;4.07;;
63693;SDS011;49839;51.798;10.954;2024-03-17T05:26:07;13.55;;;3.58;;
63693;SDS011;49839;51.798;10.954;2024-03-17T05:28:34;7.68;;;2.72;;
63693;SDS011;49839;51.798;10.954;2024-03-17T05:31:02;12.02;;;2.72;;
63693;SDS011;49839;51.798;10.954;2024-03-17T05:33:29;8.57;;;2.95;;
63693;SDS011;49839;51.798;10.954;2024-03-17T05:35:56;9.75;;;2.90;;
63693;SDS011;49839;51.798;10.954;2024-03-17T05:38:23;14.98;;;3.92;;
63693;SDS011;49839;51.798;10.954;2024-03-17T05:40:53;9.40;;;2.97;;
63693;SDS011;49839;51.798;10.954;2024-03-17T05:43:20;13.43;;;3.38;;
63693;SDS011;49839;51.798;10.954;2024-03-17T05:45:47;8.50;;;3.72;;
63693;SDS011;49839;51.798;10.954;2024-03-17T05:48:15;10.32;;;2.95;;
63693;SDS011;49839;51.798;10.954;2024-03-17T05:50:41;7.80;;;2.90;;
63693;SDS011;49839;51.798;10.954;2024-03-17T05:53:08;9.73;;;2.35;;
63693;SDS011;49839;51.798;10.954;2024-03-17T05:55:34;7.55;;;2.95;;
63693;SDS011;49839;51.798;10.954;2024-03-17T05:58:01;7.60;;;2.10;;
63693;SDS011;49839;51.798;10.954;2024-03-17T06:00:27;6.88;;;2.28;;
63693;SDS011;49839;51.798;10.954;2024-03-17T06:02:54;9.73;;;2.40;;
63693;SDS011;49839;51.798;10.954;2024-03-17T06:05:22;9.07;;;2.42;;
63693;SDS011;49839;51.798;10.954;2024-03-17T06:07:49;9.13;;;2.88;;
63693;SDS011;49839;51.798;10.954;2024-03-17T06:10:15;7.93;;;2.78;;
63693;SDS011;49839;51.798;10.954;2024-03-17T06:12:42;9.00;;;2.92;;
63693;SDS011;49839;51.798;10.954;2024-03-17T06:15:08;7.75;;;3.03;;
63693;SDS011;49839;51.798;10.954;2024-03-17T06:17:36;8.50;;;3.00;;
63693;SDS011;49839;51.798;10.954;2024-03-17T06:20:02;10.48;;;2.67;;
63693;SDS011;49839;51.798;10.954;2024-03-17T06:22:30;8.32;;;2.65;;
63693;SDS011;49839;51.798;10.954;2024-03-17T06:24:57;8.32;;;2.80;;
63693;SDS011;49839;51.798;10.954;2024-03-17T06:27:24;9.05;;;2.30;;
63693;SDS011;49839;51.798;10.954;2024-03-17T06:29:50;10.68;;;2.50;;
63693;SDS011;49839;51.798;10.954;2024-03-17T06:32:16;9.93;;;1.95;;
63693;SDS011;49839;51.798;10.954;2024-03-17T06:34:43;8.38;;;2.63;;
63693;SDS011;49839;51.798;10.954;2024-03-17T06:37:10;10.30;;;3.40;;
63693;SDS011;49839;51.798;10.954;2024-03-17T06:39:38;13.27;;;4.93;;
63693;SDS011;49839;51.798;10.954;2024-03-17T06:42:05;15.48;;;7.20;;
63693;SDS011;49839;51.798;10.954;2024-03-17T06:44:31;9.68;;;2.70;;
63693;SDS011;49839;51.798;10.954;2024-03-17T06:46:59;10.48;;;2.97;;
63693;SDS011;49839;51.798;10.954;2024-03-17T06:49:26;10.75;;;2.83;;
63693;SDS011;49839;51.798;10.954;2024-03-17T06:51:53;7.45;;;2.55;;
63693;SDS011;49839;51.798;10.954;2024-03-17T06:54:19;8.88;;;2.75;;
63693;SDS011;49839;51.798;10.954;2024-03-17T06:56:47;7.07;;;2.30;;
63693;SDS011;49839;51.798;10.954;2024-03-17T06:59:13;9.77;;;2.70;;
63693;SDS011;49839;51.798;10.954;2024-03-17T07:01:40;10.13;;;2.17;;
63693;SDS011;49839;51.798;10.954;2024-03-17T07:04:06;11.55;;;2.97;;
63693;SDS011;49839;51.798;10.954;2024-03-17T07:06:33;10.00;;;2.67;;
63693;SDS011;49839;51.798;10.954;2024-03-17T07:08:59;15.20;;;6.43;;
63693;SDS011;49839;51.798;10.954;2024-03-17T07:11:26;12.10;;;3.80;;
63693;SDS011;49839;51.798;10.954;2024-03-17T07:13:54;11.68;;;4.15;;
63693;SDS011;49839;51.798;10.954;2024-03-17T07:16:21;9.30;;;3.92;;
63693;SDS011;49839;51.798;10.954;2024-03-17T07:18:52;8.65;;;3.65;;
63693;SDS011;49839;51.798;10.954;2024-03-17T07:21:22;10.20;;;2.97;;
63693;SDS011;49839;51.798;10.954;2024-03-17T07:23:49;9.25;;;3.22;;
63693;SDS011;49839;51.798;10.954;2024-03-17T07:26:15;7.82;;;2.63;;
63693;SDS011;49839;51.798;10.954;2024-03-17T07:28:42;8.90;;;2.55;;
63693;SDS011;49839;51.798;10.954;2024-03-17T07:31:11;7.82;;;2.30;;
63693;SDS011;49839;51.798;10.954;2024-03-17T07:33:37;10.52;;;2.95;;
63693;SDS011;49839;51.798;10.954;2024-03-17T07:36:04;10.68;;;2.38;;
63693;SDS011;49839;51.798;10.954;2024-03-17T07:38:32;6.57;;;2.40;;
63693;SDS011;49839;51.798;10.954;2024-03-17T07:41:01;5.72;;;2.03;;
63693;SDS011;49839;51.798;10.954;2024-03-17T07:43:28;12.27;;;2.83;;
63693;SDS011;49839;51.798;10.954;2024-03-17T07:45:56;12.10;;;3.35;;
63693;SDS011;49839;51.798;10.954;2024-03-17T07:48:24;6.55;;;2.35;;
63693;SDS011;49839;51.798;10.954;2024-03-17T07:50:53;7.85;;;2.17;;
63693;SDS011;49839;51.798;10.954;2024-03-17T07:53:20;6.75;;;2.50;;
63693;SDS011;49839;51.798;10.954;2024-03-17T07:55:46;8.07;;;2.85;;
63693;SDS011;49839;51.798;10.954;2024-03-17T07:58:13;9.77;;;2.80;;
63693;SDS011;49839;51.798;10.954;2024-03-17T08:00:39;11.90;;;3.40;;
63693;SDS011;49839;51.798;10.954;2024-03-17T08:03:06;10.30;;;3.38;;
63693;SDS011;49839;51.798;10.954;2024-03-17T08:05:34;12.07;;;2.75;;
63693;SDS011;49839;51.798;10.954;2024-03-17T08:08:01;12.95;;;3.28;;
63693;SDS011;49839;51.798;10.954;2024-03-17T08:10:28;9.15;;;2.60;;
63693;SDS011;49839;51.798;10.954;2024-03-17T08:12:54;11.15;;;3.38;;
63693;SDS011;49839;51.798;10.954;2024-03-17T08:15:22;10.48;;;3.08;;
63693;SDS011;49839;51.798;10.954;2024-03-17T08:17:48;11.20;;;2.92;;
63693;SDS011;49839;51.798;10.954;2024-03-17T08:20:15;8.98;;;2.53;;
63693;SDS011;49839;51.798;10.954;2024-03-17T08:22:43;8.57;;;2.45;;
63693;SDS011;49839;51.798;10.954;2024-03-17T08:25:09;8.18;;;2.50;;
63693;SDS011;49839;51.798;10.954;2024-03-17T08:27:36;8.30;;;2.67;;
63693;SDS011;49839;51.798;10.954;2024-03-17T08:30:02;6.55;;;1.73;;
63693;SDS011;49839;51.798;10.954;2024-03-17T08:32:29;8.68;;;2.22;;
63693;SDS011;49839;51.798;10.954;2024-03-17T08:34:55;5.65;;;1.70;;
63693;SDS011;49839;51.798;10.954;2024-03-17T08:37:22;6.53;;;1.90;;
63693;SDS011;49839;51.798;10.954;2024-03-17T08:39:52;6.45;;;1.95;;
63693;SDS011;49839;51.798;10.954;2024-03-17T08:42:18;12.25;;;3.45;;
63693;SDS011;49839;51.798;10.954;2024-03-17T08:44:45;8.20;;;2.20;;
63693;SDS011;49839;51.798;10.954;2024-03-17T08:47:12;6.32;;;2.03;;
63693;SDS011;49839;51.798;10.954;2024-03-17T08:49:38;14.65;;;2.40;;
63693;SDS011;49839;51.798;10.954;2024-03-17T08:52:05;8.00;;;2.17;;
63693;SDS011;49839;51.798;10.954;2024-03-17T08:54:32;8.25;;;2.10;;
63693;SDS011;49839;51.798;10.954;2024-03-17T08:57:00;8.38;;;2.25;;
63693;SDS011;49839;51.798;10.954;2024-03-17T08:59:27;9.13;;;2.43;;
63693;SDS011;49839;51.798;10.954;2024-03-17T09:01:54;6.88;;;2.00;;
63693;SDS011;49839;51.798;10.954;2024-03-17T09:04:20;5.32;;;1.92;;
63693;SDS011;49839;51.798;10.954;2024-03-17T09:06:47;9.18;;;1.70;;
63693;SDS011;49839;51.798;10.954;2024-03-17T09:09:13;6.60;;;1.90;;
63693;SDS011;49839;51.798;10.954;2024-03-17T09:11:40;9.07;;;2.28;;
63693;SDS011;49839;51.798;10.954;2024-03-17T09:14:08;7.20;;;1.95;;
63693;SDS011;49839;51.798;10.954;2024-03-17T09:16:34;7.80;;;2.20;;
63693;SDS011;49839;51.798;10.954;2024-03-17T09:19:01;10.75;;;2.10;;
63693;SDS011;49839;51.798;10.954;2024-03-17T09:21:27;6.32;;;2.10;;
63693;SDS011;49839;51.798;10.954;2024-03-17T09:23:54;6.93;;;2.38;;
63693;SDS011;49839;51.798;10.954;2024-03-17T09:26:20;7.57;;;2.17;;
63693;SDS011;49839;51.798;10.954;2024-03-17T09:28:47;6.80;;;2.10;;
63693;SDS011;49839;51.798;10.954;2024-03-17T09:31:15;6.25;;;1.80;;
63693;SDS011;49839;51.798;10.954;2024-03-17T09:33:41;7.95;;;2.00;;
63693;SDS011;49839;51.798;10.954;2024-03-17T09:36:08;6.38;;;1.92;;
63693;SDS011;49839;51.798;10.954;2024-03-17T09:38:36;5.25;;;2.10;;
63693;SDS011;49839;51.798;10.954;2024-03-17T09:41:03;6.07;;;1.80;;
63693;SDS011;49839;51.798;10.954;2024-03-17T09:43:31;5.85;;;1.88;;
63693;SDS011;49839;51.798;10.954;2024-03-17T09:45:58;7.10;;;2.10;;
63693;SDS011;49839;51.798;10.954;2024-03-17T09:48:26;7.97;;;1.98;;
63693;SDS011;49839;51.798;10.954;2024-03-17T09:50:54;7.28;;;2.10;;
63693;SDS011;49839;51.798;10.954;2024-03-17T09:53:22;9.00;;;2.40;;
63693;SDS011;49839;51.798;10.954;2024-03-17T09:55:49;6.85;;;2.03;;
63693;SDS011;49839;51.798;10.954;2024-03-17T09:58:16;6.78;;;2.00;;
63693;SDS011;49839;51.798;10.954;2024-03-17T10:00:43;8.90;;;2.15;;
63693;SDS011;49839;51.798;10.954;2024-03-17T10:03:09;7.30;;;1.98;;
63693;SDS011;49839;51.798;10.954;2024-03-17T10:05:37;7.38;;;1.80;;
63693;SDS011;49839;51.798;10.954;2024-03-17T10:08:04;7.70;;;2.10;;
63693;SDS011;49839;51.798;10.954;2024-03-17T10:10:30;7.93;;;2.00;;
63693;SDS011;49839;51.798;10.954;2024-03-17T10:12:57;7.18;;;2.08;;
63693;SDS011;49839;51.798;10.954;2024-03-17T10:15:23;6.80;;;2.13;;
63693;SDS011;49839;51.798;10.954;2024-03-17T10:17:50;6.65;;;2.70;;
63693;SDS011;49839;51.798;10.954;2024-03-17T10:20:16;5.55;;;1.80;;
63693;SDS011;49839;51.798;10.954;2024-03-17T10:23:00;6.07;;;1.77;;
63693;SDS011;49839;51.798;10.954;2024-03-17T10:25:27;6.72;;;2.78;;
63693;SDS011;49839;51.798;10.954;2024-03-17T10:27:54;6.22;;;1.80;;
63693;SDS011;49839;51.798;10.954;2024-03-17T10:30:22;7.45;;;1.88;;
63693;SDS011;49839;51.798;10.954;2024-03-17T10:32:53;5.65;;;2.00;;
63693;SDS011;49839;51.798;10.954;2024-03-17T10:35:27;8.05;;;1.92;;
63693;SDS011;49839;51.798;10.954;2024-03-17T10:37:54;10.05;;;5.03;;
63693;SDS011;49839;51.798;10.954;2024-03-17T10:40:22;12.50;;;4.70;;
63693;SDS011;49839;51.798;10.954;2024-03-17T10:42:49;7.95;;;3.22;;
63693;SDS011;49839;51.798;10.954;2024-03-17T10:45:16;9.02;;;2.30;;
63693;SDS011;49839;51.798;10.954;2024-03-17T10:47:43;8.38;;;2.20;;
63693;SDS011;49839;51.798;10.954;2024-03-17T10:50:12;6.10;;;1.88;;
63693;SDS011;49839;51.798;10.954;2024-03-17T10:52:41;8.23;;;2.20;;
63693;SDS011;49839;51.798;10.954;2024-03-17T10:57:41;5.70;;;1.83;;
63693;SDS011;49839;51.798;10.954;2024-03-17T11:00:11;5.22;;;1.73;;
63693;SDS011;49839;51.798;10.954;2024-03-17T11:02:42;6.30;;;2.25;;
63693;SDS011;49839;51.798;10.954;2024-03-17T11:05:10;6.78;;;1.73;;
63693;SDS011;49839;51.798;10.954;2024-03-17T11:07:40;9.43;;;2.30;;
63693;SDS011;49839;51.798;10.954;2024-03-17T11:10:14;6.32;;;1.70;;
63693;SDS011;49839;51.798;10.954;2024-03-17T11:12:43;4.63;;;1.40;;
63693;SDS011;49839;51.798;10.954;2024-03-17T11:20:42;6.97;;;2.05;;
63693;SDS011;49839;51.798;10.954;2024-03-17T11:23:08;6.65;;;2.28;;
63693;SDS011;49839;51.798;10.954;2024-03-17T11:25:38;6.28;;;1.90;;
63693;SDS011;49839;51.798;10.954;2024-03-17T11:28:06;10.43;;;2.35;;
63693;SDS011;49839;51.798;10.954;2024-03-17T11:30:41;17.08;;;11.05;;
63693;SDS011;49839;51.798;10.954;2024-03-17T11:35:50;11.18;;;6.32;;
63693;SDS011;49839;51.798;10.954;2024-03-17T11:43:39;7.13;;;1.80;;
63693;SDS011;49839;51.798;10.954;2024-03-17T11:46:05;6.30;;;1.90;;
63693;SDS011;49839;51.798;10.954;2024-03-17T11:48:31;5.63;;;1.30;;
63693;SDS011;49839;51.798;10.954;2024-03-17T11:50:57;5.00;;;1.65;;
63693;SDS011;49839;51.798;10.954;2024-03-17T11:53:23;4.28;;;1.38;;
63693;SDS011;49839;51.798;10.954;2024-03-17T11:55:50;7.70;;;1.90;;
63693;SDS011;49839;51.798;10.954;2024-03-17T11:58:16;7.22;;;1.92;;
63693;SDS011;49839;51.798;10.954;2024-03-17T12:00:43;6.53;;;1.65;;
63693;SDS011;49839;51.798;10.954;2024-03-17T12:03:17;6.85;;;1.80;;
63693;SDS011;49839;51.798;10.954;2024-03-17T12:05:42;4.82;;;1.55;;
63693;SDS011;49839;51.798;10.954;2024-03-17T12:08:17;5.40;;;1.50;;
63693;SDS011;49839;51.798;10.954;2024-03-17T12:10:46;7.20;;;1.35;;
63693;SDS011;49839;51.798;10.954;2024-03-17T12:13:13;4.28;;;1.40;;
63693;SDS011;49839;51.798;10.954;2024-03-17T12:15:38;4.80;;;1.90;;
63693;SDS011;49839;51.798;10.954;2024-03-17T12:18:06;5.45;;;1.52;;
63693;SDS011;49839;51.798;10.954;2024-03-17T12:20:44;3.72;;;1.38;;
63693;SDS011;49839;51.798;10.954;2024-03-17T12:23:13;6.43;;;1.70;;
63693;SDS011;49839;51.798;10.954;2024-03-17T12:25:42;4.40;;;1.60;;
63693;SDS011;49839;51.798;10.954;2024-03-17T12:28:13;7.38;;;2.10;;
63693;SDS011;49839;51.798;10.954;2024-03-17T12:30:40;7.97;;;2.42;;
63693;SDS011;49839;51.798;10.954;2024-03-17T12:33:08;6.53;;;2.53;;
63693;SDS011;49839;51.798;10.954;2024-03-17T12:35:36;4.37;;;1.80;;
63693;SDS011;49839;51.798;10.954;2024-03-17T12:38:02;5.70;;;2.58;;
63693;SDS011;49839;51.798;10.954;2024-03-17T12:40:28;6.20;;;1.83;;
63693;SDS011;49839;51.798;10.954;2024-03-17T12:42:54;7.47;;;2.13;;
63693;SDS011;49839;51.798;10.954;2024-03-17T12:45:20;10.25;;;2.60;;
63693;SDS011;49839;51.798;10.954;2024-03-17T12:47:47;4.68;;;1.83;;
63693;SDS011;49839;51.798;10.954;2024-03-17T12:50:14;7.68;;;2.17;;
63693;SDS011;49839;51.798;10.954;2024-03-17T12:52:46;8.25;;;1.98;;
63693;SDS011;49839;51.798;10.954;2024-03-17T12:55:18;7.35;;;1.95;;
63693;SDS011;49839;51.798;10.954;2024-03-17T12:58:05;5.90;;;2.25;;
63693;SDS011;49839;51.798;10.954;2024-03-17T13:00:56;4.10;;;1.65;;
63693;SDS011;49839;51.798;10.954;2024-03-17T13:03:23;7.57;;;1.90;;
63693;SDS011;49839;51.798;10.954;2024-03-17T13:05:51;7.57;;;2.25;;
63693;SDS011;49839;51.798;10.954;2024-03-17T13:08:18;7.22;;;1.90;;
63693;SDS011;49839;51.798;10.954;2024-03-17T13:10:44;6.95;;;2.22;;
63693;SDS011;49839;51.798;10.954;2024-03-17T13:13:12;4.38;;;1.77;;
63693;SDS011;49839;51.798;10.954;2024-03-17T13:15:41;8.23;;;1.95;;
63693;SDS011;49839;51.798;10.954;2024-03-17T13:18:07;7.13;;;2.00;;
63693;SDS011;49839;51.798;10.954;2024-03-17T13:20:34;6.03;;;2.00;;
63693;SDS011;49839;51.798;10.954;2024-03-17T13:23:02;6.28;;;1.75;;
63693;SDS011;49839;51.798;10.954;2024-03-17T13:25:29;7.18;;;2.00;;
63693;SDS011;49839;51.798;10.954;2024-03-17T13:28:00;9.70;;;2.00;;
63693;SDS011;49839;51.798;10.954;2024-03-17T13:30:29;6.22;;;2.20;;
63693;SDS011;49839;51.798;10.954;2024-03-17T13:32:55;7.47;;;2.13;;
63693;SDS011;49839;51.798;10.954;2024-03-17T13:35:23;9.82;;;2.80;;
63693;SDS011;49839;51.798;10.954;2024-03-17T13:37:51;5.90;;;2.63;;
63693;SDS011;49839;51.798;10.954;2024-03-17T13:40:20;7.25;;;2.40;;
63693;SDS011;49839;51.798;10.954;2024-03-17T13:42:48;7.82;;;2.42;;
63693;SDS011;49839;51.798;10.954;2024-03-17T13:45:15;7.05;;;2.85;;
63693;SDS011;49839;51.798;10.954;2024-03-17T13:47:43;5.63;;;2.10;;
63693;SDS011;49839;51.798;10.954;2024-03-17T13:50:10;4.87;;;2.27;;
63693;SDS011;49839;51.798;10.954;2024-03-17T13:52:38;8.98;;;2.53;;
63693;SDS011;49839;51.798;10.954;2024-03-17T13:55:04;5.93;;;2.60;;
63693;SDS011;49839;51.798;10.954;2024-03-17T13:57:33;5.72;;;2.40;;
63693;SDS011;49839;51.798;10.954;2024-03-17T14:00:00;7.47;;;2.50;;
63693;SDS011;49839;51.798;10.954;2024-03-17T14:02:27;6.75;;;2.40;;
63693;SDS011;49839;51.798;10.954;2024-03-17T14:04:54;6.78;;;2.30;;
63693;SDS011;49839;51.798;10.954;2024-03-17T14:07:20;7.70;;;2.70;;
63693;SDS011;49839;51.798;10.954;2024-03-17T14:09:46;6.30;;;2.55;;
63693;SDS011;49839;51.798;10.954;2024-03-17T14:12:13;7.32;;;2.75;;
63693;SDS011;49839;51.798;10.954;2024-03-17T14:14:41;9.93;;;2.55;;
63693;SDS011;49839;51.798;10.954;2024-03-17T14:17:08;8.25;;;3.40;;
63693;SDS011;49839;51.798;10.954;2024-03-17T14:19:34;8.05;;;2.72;;
63693;SDS011;49839;51.798;10.954;2024-03-17T14:22:01;8.00;;;3.13;;
63693;SDS011;49839;51.798;10.954;2024-03-17T14:24:27;11.20;;;3.50;;
63693;SDS011;49839;51.798;10.954;2024-03-17T14:26:54;9.73;;;3.00;;
63693;SDS011;49839;51.798;10.954;2024-03-17T14:29:21;10.00;;;4.00;;
63693;SDS011;49839;51.798;10.954;2024-03-17T14:31:48;8.73;;;3.05;;
63693;SDS011;49839;51.798;10.954;2024-03-17T14:34:15;9.90;;;3.75;;
63693;SDS011;49839;51.798;10.954;2024-03-17T14:36:42;8.32;;;3.63;;
63693;SDS011;49839;51.798;10.954;2024-03-17T14:39:08;6.25;;;3.40;;
63693;SDS011;49839;51.798;10.954;2024-03-17T14:41:34;8.85;;;4.07;;
63693;SDS011;49839;51.798;10.954;2024-03-17T14:44:01;8.88;;;3.83;;
63693;SDS011;49839;51.798;10.954;2024-03-17T14:46:29;8.63;;;3.83;;